Weather at Shoshone Airport

Public forecast

Using degrees Fahrenheit for public forecast. Weather courtesy of forecast.io.

Closest aviation weather report (METAR) to Shoshone Airport

Closest report is Desert Rock Airport, 40.7 nm (75.4 km) NNE. Retrieved 2021/06/12 09:53 UTC (33 minutes ago):

KDRA 120953Z AUTO 08004KT 10SM CLR 17/M18 A2993 RMK AO2 SLP091 T01721178

Closest aviation forecast (TAF) to Shoshone Airport

Forecast is more than 12 hours old.

Closest forecast is Desert Rock Airport, 40.7 nm (75.4 km) NNE. Retrieved 2011/12/07 06:36 UTC (10 years ago):

TAF KDRA 070532Z 0706/0806 VRB04KT P6SM SKC